createdAt,value
2017-03-27T00:00:33.907Z,0
2017-03-27T00:01:43.208Z,0
2017-03-27T00:02:53.111Z,0
2017-03-27T00:04:34.830Z,0
2017-03-27T00:05:44.811Z,0
2017-03-27T00:06:54.767Z,0
2017-03-27T00:08:04.798Z,0
2017-03-27T00:09:14.408Z,0
2017-03-27T00:10:24.319Z,0
2017-03-27T00:11:34.260Z,0
2017-03-27T00:12:43.992Z,0
2017-03-27T00:13:53.926Z,0
2017-03-27T00:15:04.083Z,0
2017-03-27T00:16:13.731Z,0
2017-03-27T00:17:23.320Z,0
2017-03-27T00:18:32.963Z,0
2017-03-27T00:19:42.876Z,0
2017-03-27T00:20:53.073Z,0
2017-03-27T00:22:02.373Z,0
2017-03-27T00:23:12.330Z,0
2017-03-27T00:24:22.271Z,0
2017-03-27T00:25:31.334Z,0
2017-03-27T00:26:41.165Z,0
2017-03-27T00:27:51.196Z,0
2017-03-27T00:29:01.153Z,0
2017-03-27T00:30:11.157Z,0
2017-03-27T00:31:20.433Z,0
2017-03-27T00:32:30.620Z,0
2017-03-27T00:33:40.570Z,0
2017-03-27T00:34:50.530Z,0
2017-03-27T00:36:00.465Z,0
2017-03-27T00:37:10.088Z,0
2017-03-27T00:38:20.280Z,0
2017-03-27T00:39:30.350Z,0
2017-03-27T00:40:39.621Z,0
2017-03-27T00:41:49.243Z,0
2017-03-27T00:42:59.182Z,0
2017-03-27T00:44:09.408Z,0
2017-03-27T00:45:19.344Z,0
2017-03-27T00:46:29.306Z,0
2017-03-27T00:47:39.260Z,0
2017-03-27T00:48:49.199Z,0
2017-03-27T00:49:59.058Z,0
2017-03-27T00:51:09.049Z,0
2017-03-27T00:52:18.958Z,0
2017-03-27T00:53:28.863Z,0
2017-03-27T00:54:38.850Z,0
2017-03-27T00:55:49.149Z,0
2017-03-27T00:56:58.764Z,0
2017-03-27T00:58:08.386Z,0
2017-03-27T00:59:17.996Z,0
2017-03-27T01:00:27.603Z,0
2017-03-27T01:01:38.032Z,0
2017-03-27T01:02:47.942Z,0
2017-03-27T01:03:58.005Z,0
2017-03-27T01:05:07.924Z,0
2017-03-27T01:06:17.583Z,0
2017-03-27T01:07:27.432Z,0
2017-03-27T01:08:37.372Z,0
2017-03-27T01:09:47.304Z,0
2017-03-27T01:10:57.343Z,0
2017-03-27T01:12:07.401Z,0
2017-03-27T01:13:17.248Z,0
2017-03-27T01:14:26.548Z,0
2017-03-27T01:15:35.854Z,0
2017-03-27T01:16:45.915Z,0
2017-03-27T01:17:55.874Z,0
2017-03-27T01:19:06.052Z,0
2017-03-27T01:20:15.620Z,0
2017-03-27T01:21:25.530Z,0
2017-03-27T01:22:35.480Z,0
2017-03-27T01:23:45.390Z,0
2017-03-27T01:24:55.238Z,0
2017-03-27T01:26:05.146Z,0
2017-03-27T01:27:15.076Z,0
2017-03-27T01:28:24.414Z,0
2017-03-27T01:29:34.316Z,0
2017-03-27T01:30:44.196Z,0
2017-03-27T01:31:53.817Z,0
2017-03-27T01:33:03.800Z,0
2017-03-27T01:34:13.055Z,0
2017-03-27T01:35:22.683Z,0
2017-03-27T01:36:33.006Z,0
2017-03-27T01:37:42.621Z,0
2017-03-27T01:38:52.223Z,0
2017-03-27T01:40:01.853Z,0
2017-03-27T01:41:11.995Z,0
2017-03-27T01:42:22.161Z,0
2017-03-27T01:43:32.074Z,0
2017-03-27T01:44:41.995Z,0
2017-03-27T01:45:51.600Z,0
2017-03-27T01:47:01.554Z,0
2017-03-27T01:48:11.894Z,0
2017-03-27T01:49:21.640Z,0
2017-03-27T01:50:31.581Z,0
2017-03-27T01:51:41.530Z,0
2017-03-27T01:52:51.432Z,0
2017-03-27T01:54:01.266Z,0
2017-03-27T01:55:11.188Z,0
2017-03-27T01:56:21.131Z,0
2017-03-27T01:57:31.059Z,0
2017-03-27T01:58:40.707Z,0
2017-03-27T01:59:50.981Z,0
2017-03-27T02:01:00.943Z,0
2017-03-27T02:02:11.115Z,0
2017-03-27T02:03:21.095Z,0
2017-03-27T02:04:31.189Z,0
2017-03-27T02:05:41.034Z,0
2017-03-27T02:06:50.924Z,0
2017-03-27T02:08:00.549Z,0
2017-03-27T02:09:10.534Z,0
2017-03-27T02:10:20.125Z,0
2017-03-27T02:11:30.297Z,0
2017-03-27T02:12:40.256Z,0
2017-03-27T02:13:49.900Z,0
2017-03-27T02:14:59.536Z,0
2017-03-27T02:16:09.444Z,0
2017-03-27T02:17:19.304Z,0
2017-03-27T02:18:29.265Z,0
2017-03-27T02:19:38.891Z,0
2017-03-27T02:20:48.796Z,0
2017-03-27T02:21:58.494Z,0
2017-03-27T02:23:08.655Z,0
2017-03-27T02:24:18.572Z,0
2017-03-27T02:25:28.154Z,0
2017-03-27T02:26:38.062Z,0
2017-03-27T02:27:47.671Z,0
2017-03-27T02:28:57.887Z,0
2017-03-27T02:30:07.222Z,0
2017-03-27T02:31:17.129Z,0
2017-03-27T02:32:27.183Z,0
2017-03-27T02:33:36.445Z,0
2017-03-27T02:34:46.650Z,0
2017-03-27T02:35:56.601Z,0
2017-03-27T02:37:06.178Z,0
2017-03-27T02:38:16.021Z,0
2017-03-27T02:39:26.010Z,0
2017-03-27T02:40:36.278Z,0
2017-03-27T02:41:46.189Z,0
2017-03-27T02:42:56.169Z,0
2017-03-27T02:44:06.097Z,0
2017-03-27T02:45:16.008Z,0
2017-03-27T02:46:26.171Z,0
2017-03-27T02:47:35.782Z,0
2017-03-27T02:48:45.722Z,0
2017-03-27T02:49:54.995Z,0
2017-03-27T02:51:04.910Z,0
2017-03-27T02:52:14.472Z,0
2017-03-27T02:53:24.116Z,0
2017-03-27T02:54:34.061Z,0
2017-03-27T02:55:44.022Z,0
2017-03-27T02:56:53.974Z,0
2017-03-27T02:58:04.186Z,0
2017-03-27T02:59:14.124Z,0
2017-03-27T03:00:24.135Z,0
2017-03-27T03:01:34.138Z,0
2017-03-27T03:02:43.744Z,0
2017-03-27T03:03:53.635Z,0
2017-03-27T03:05:03.259Z,0
2017-03-27T03:06:13.270Z,0
2017-03-27T03:07:22.866Z,0
2017-03-27T03:08:32.423Z,0
2017-03-27T03:09:42.299Z,0
2017-03-27T03:10:52.205Z,0
2017-03-27T03:12:01.798Z,0
2017-03-27T03:13:11.727Z,0
2017-03-27T03:14:21.073Z,0
2017-03-27T03:15:31.000Z,0
2017-03-27T03:16:40.983Z,0
2017-03-27T03:17:50.642Z,0
2017-03-27T03:19:00.563Z,0
2017-03-27T03:20:10.518Z,0
2017-03-27T03:21:20.740Z,0
2017-03-27T03:22:30.664Z,0
2017-03-27T03:23:40.238Z,0
2017-03-27T03:24:49.548Z,0
2017-03-27T03:25:59.609Z,0
2017-03-27T03:27:09.826Z,0
2017-03-27T03:28:19.760Z,0
2017-03-27T03:29:29.068Z,0
2017-03-27T03:30:38.696Z,0
2017-03-27T03:31:48.615Z,0
2017-03-27T03:32:58.505Z,0
2017-03-27T03:34:08.421Z,0
2017-03-27T03:35:18.554Z,0
2017-03-27T03:36:28.601Z,0
2017-03-27T03:37:38.499Z,0
2017-03-27T03:38:48.664Z,0
2017-03-27T03:39:58.572Z,0
2017-03-27T03:41:08.159Z,0
2017-03-27T03:42:18.094Z,0
2017-03-27T03:43:27.680Z,0
2017-03-27T03:44:37.961Z,0
2017-03-27T03:45:48.020Z,0
2017-03-27T03:46:57.636Z,0
2017-03-27T03:48:06.910Z,0
2017-03-27T03:49:16.836Z,0
2017-03-27T03:50:27.021Z,0
2017-03-27T03:51:36.634Z,0
2017-03-27T03:52:46.649Z,0
2017-03-27T03:53:56.678Z,0
2017-03-27T03:55:05.990Z,0
2017-03-27T03:56:16.308Z,0
2017-03-27T03:57:26.229Z,0
2017-03-27T03:58:36.127Z,0
2017-03-27T03:59:46.083Z,0
2017-03-27T04:00:56.028Z,0
2017-03-27T04:02:05.633Z,0
2017-03-27T04:03:15.564Z,0
2017-03-27T04:04:24.858Z,0
2017-03-27T04:05:34.445Z,0
2017-03-27T04:06:44.358Z,0
2017-03-27T04:07:54.211Z,0
2017-03-27T04:09:04.125Z,0
2017-03-27T04:10:14.089Z,0
2017-03-27T04:11:23.956Z,0
2017-03-27T04:12:33.677Z,0
2017-03-27T04:13:43.864Z,0
2017-03-27T04:14:53.885Z,0
2017-03-27T04:16:03.473Z,0
2017-03-27T04:17:13.395Z,0
2017-03-27T04:18:23.322Z,0
2017-03-27T04:19:33.208Z,0
2017-03-27T04:20:43.151Z,0
2017-03-27T04:21:52.738Z,0
2017-03-27T04:23:02.891Z,0
2017-03-27T04:24:12.806Z,0
2017-03-27T04:25:22.732Z,0
2017-03-27T04:26:32.629Z,0
2017-03-27T04:27:41.905Z,0
2017-03-27T04:28:51.805Z,0
2017-03-27T04:30:01.979Z,0
2017-03-27T04:31:12.150Z,0
2017-03-27T04:32:21.769Z,0
2017-03-27T04:33:31.714Z,0
2017-03-27T04:34:41.434Z,0
2017-03-27T04:35:51.341Z,0
2017-03-27T04:37:01.197Z,0
2017-03-27T04:38:10.513Z,0
2017-03-27T04:39:19.822Z,0
2017-03-27T04:40:29.473Z,0
2017-03-27T04:41:39.520Z,0
2017-03-27T04:42:49.796Z,0
2017-03-27T04:43:59.439Z,0
2017-03-27T04:45:08.400Z,0
2017-03-27T04:46:18.031Z,0
2017-03-27T04:47:27.944Z,0
2017-03-27T04:48:38.229Z,0
2017-03-27T04:49:48.160Z,5
2017-03-27T04:50:58.291Z,5
2017-03-27T04:52:07.724Z,5
2017-03-27T04:53:17.701Z,5
2017-03-27T04:54:27.568Z,5
2017-03-27T04:55:37.152Z,10
2017-03-27T04:56:47.056Z,10
2017-03-27T04:57:56.676Z,10
2017-03-27T04:59:06.300Z,10
2017-03-27T05:00:15.532Z,15
2017-03-27T05:01:25.532Z,15
2017-03-27T05:02:35.152Z,15
2017-03-27T05:03:45.069Z,20
2017-03-27T05:04:54.675Z,20
2017-03-27T05:06:04.833Z,20
2017-03-27T05:07:14.100Z,25
2017-03-27T05:08:24.110Z,25
2017-03-27T05:09:34.003Z,30
2017-03-27T05:10:43.915Z,30
2017-03-27T05:11:53.783Z,35
2017-03-27T05:13:03.698Z,35
2017-03-27T05:14:13.648Z,40
2017-03-27T05:15:23.612Z,40
2017-03-27T05:16:33.229Z,45
2017-03-27T05:17:42.867Z,45
2017-03-27T05:18:52.461Z,50
2017-03-27T05:20:02.050Z,50
2017-03-27T05:21:11.996Z,55
2017-03-27T05:22:21.260Z,55
2017-03-27T05:23:31.432Z,60
2017-03-27T05:24:41.373Z,65
2017-03-27T05:25:51.280Z,65
2017-03-27T05:27:01.293Z,70
2017-03-27T05:28:11.233Z,70
2017-03-27T05:29:21.132Z,75
2017-03-27T05:30:30.761Z,75
2017-03-27T05:31:39.696Z,80
2017-03-27T05:32:49.307Z,85
2017-03-27T05:33:59.261Z,85
2017-03-27T05:35:09.471Z,90
2017-03-27T05:36:19.109Z,95
2017-03-27T05:37:29.100Z,95
2017-03-27T05:38:39.001Z,95
2017-03-27T05:39:48.943Z,100
2017-03-27T05:40:58.813Z,100
2017-03-27T05:42:08.431Z,105
2017-03-27T05:43:18.409Z,110
2017-03-27T05:44:28.357Z,110
2017-03-27T05:45:38.207Z,115
2017-03-27T05:46:48.375Z,120
2017-03-27T05:47:58.281Z,120
2017-03-27T05:49:08.190Z,125
2017-03-27T05:50:18.102Z,130
2017-03-27T05:51:28.076Z,130
2017-03-27T05:52:37.913Z,135
2017-03-27T05:53:47.629Z,140
2017-03-27T05:54:57.212Z,145
2017-03-27T05:56:06.891Z,140
2017-03-27T05:57:16.903Z,145
2017-03-27T05:58:27.117Z,155
2017-03-27T05:59:37.042Z,150
2017-03-27T06:00:46.931Z,150
2017-03-27T06:01:56.539Z,150
2017-03-27T06:03:06.468Z,155
2017-03-27T06:04:16.669Z,155
2017-03-27T06:05:26.534Z,155
2017-03-27T06:06:36.517Z,160
2017-03-27T06:07:46.508Z,160
2017-03-27T06:08:56.492Z,165
2017-03-27T06:10:06.406Z,165
2017-03-27T06:11:16.319Z,165
2017-03-27T06:12:26.218Z,170
2017-03-27T06:13:36.197Z,170
2017-03-27T06:14:45.783Z,170
2017-03-27T06:15:55.716Z,175
2017-03-27T06:17:05.342Z,175
2017-03-27T06:18:15.378Z,175
2017-03-27T06:19:25.372Z,180
2017-03-27T06:20:35.025Z,180
2017-03-27T06:21:45.246Z,185
2017-03-27T06:22:55.166Z,185
2017-03-27T06:24:04.773Z,190
2017-03-27T06:25:14.458Z,190
2017-03-27T06:26:24.127Z,195
2017-03-27T06:27:34.398Z,195
2017-03-27T06:28:44.316Z,195
2017-03-27T06:29:54.224Z,200
2017-03-27T06:31:03.885Z,200
2017-03-27T06:32:13.800Z,200
2017-03-27T06:33:23.980Z,205
2017-03-27T06:34:33.599Z,205
2017-03-27T06:35:42.586Z,205
2017-03-27T06:36:52.213Z,205
2017-03-27T06:38:01.810Z,210
2017-03-27T06:39:11.436Z,210
2017-03-27T06:40:21.362Z,210
2017-03-27T06:41:30.969Z,210
2017-03-27T06:42:40.917Z,215
2017-03-27T06:43:50.529Z,215
2017-03-27T06:45:00.711Z,220
2017-03-27T06:46:10.626Z,215
2017-03-27T06:47:20.352Z,220
2017-03-27T06:48:30.295Z,220
2017-03-27T06:49:39.698Z,220
2017-03-27T06:50:49.570Z,220
2017-03-27T06:51:59.173Z,225
2017-03-27T06:53:09.193Z,225
2017-03-27T06:54:19.259Z,225
2017-03-27T06:55:29.179Z,225
2017-03-27T06:56:39.385Z,230
2017-03-27T06:57:49.315Z,230
2017-03-27T06:58:58.958Z,230
2017-03-27T07:00:08.878Z,235
2017-03-27T07:01:18.827Z,235
2017-03-27T07:02:28.776Z,235
2017-03-27T07:03:38.393Z,240
2017-03-27T07:04:47.687Z,240
2017-03-27T07:05:56.964Z,240
2017-03-27T07:07:06.886Z,245
2017-03-27T07:08:16.833Z,245
2017-03-27T07:09:26.122Z,250
2017-03-27T07:10:36.023Z,255
2017-03-27T07:11:45.959Z,260
2017-03-27T07:12:55.275Z,260
2017-03-27T07:14:05.456Z,265
2017-03-27T07:15:14.771Z,275
2017-03-27T07:16:24.073Z,275
2017-03-27T07:17:34.062Z,280
2017-03-27T07:18:43.990Z,280
2017-03-27T07:19:53.625Z,285
2017-03-27T07:21:03.575Z,290
2017-03-27T07:22:13.217Z,295
2017-03-27T07:23:23.136Z,305
2017-03-27T07:24:33.062Z,300
2017-03-27T07:25:43.065Z,305
2017-03-27T07:26:52.669Z,310
2017-03-27T07:28:02.390Z,315
2017-03-27T07:29:11.676Z,320
2017-03-27T07:30:21.731Z,325
2017-03-27T07:31:31.890Z,330
2017-03-27T07:32:41.828Z,330
2017-03-27T07:33:51.445Z,335
2017-03-27T07:35:01.130Z,335
2017-03-27T07:36:11.044Z,335
2017-03-27T07:37:21.218Z,340
2017-03-27T07:38:31.170Z,345
2017-03-27T07:39:41.075Z,345
2017-03-27T07:40:50.994Z,350
2017-03-27T07:42:01.054Z,355
2017-03-27T07:43:11.341Z,355
2017-03-27T07:44:21.273Z,360
2017-03-27T07:45:31.225Z,360
2017-03-27T07:46:41.154Z,365
2017-03-27T07:47:51.074Z,375
2017-03-27T07:49:00.913Z,370
2017-03-27T07:50:10.893Z,380
2017-03-27T07:51:20.590Z,375
2017-03-27T07:52:30.224Z,380
2017-03-27T07:53:40.192Z,380
2017-03-27T07:54:50.510Z,385
2017-03-27T07:56:00.101Z,385
2017-03-27T07:57:09.729Z,390
2017-03-27T07:58:19.641Z,390
2017-03-27T07:59:29.289Z,400
2017-03-27T08:00:39.601Z,395
2017-03-27T08:01:49.517Z,395
2017-03-27T08:02:59.431Z,400
2017-03-27T08:04:09.381Z,405
2017-03-27T08:05:20.975Z,410
2017-03-27T08:06:31.780Z,410
2017-03-27T08:07:42.103Z,410
2017-03-27T08:08:52.313Z,415
2017-03-27T08:10:02.905Z,415
2017-03-27T08:11:13.454Z,420
2017-03-27T08:12:23.904Z,430
2017-03-27T08:13:34.458Z,440
2017-03-27T08:14:44.960Z,450
2017-03-27T08:15:55.146Z,625
2017-03-27T08:17:06.672Z,1305
2017-03-27T08:18:17.677Z,2100
2017-03-27T08:19:27.881Z,2370
2017-03-27T08:20:39.352Z,2295
2017-03-27T08:21:49.511Z,2185
2017-03-27T08:22:59.149Z,2215
2017-03-27T08:24:09.264Z,2275
2017-03-27T08:25:20.114Z,2275
2017-03-27T08:26:31.628Z,2295
2017-03-27T08:27:41.834Z,2325
2017-03-27T08:28:51.766Z,2350
2017-03-27T08:30:02.587Z,2405
2017-03-27T08:31:12.849Z,2380
2017-03-27T08:32:23.394Z,2250
2017-03-27T08:33:33.968Z,2080
2017-03-27T08:34:44.680Z,1965
2017-03-27T08:35:55.443Z,1940
2017-03-27T08:37:05.999Z,2070
2017-03-27T08:38:16.542Z,2390
2017-03-27T08:39:27.077Z,2475
2017-03-27T08:40:38.263Z,2365
2017-03-27T08:41:48.825Z,2115
2017-03-27T08:42:59.389Z,1965
2017-03-27T08:44:09.875Z,1940
2017-03-27T08:45:20.299Z,2020
2017-03-27T08:46:30.925Z,2195
2017-03-27T08:47:41.759Z,2450
2017-03-27T08:48:51.665Z,2650
2017-03-27T08:50:01.874Z,2770
2017-03-27T08:51:12.077Z,2790
2017-03-27T08:52:22.381Z,2750
2017-03-27T08:53:32.852Z,2625
2017-03-27T08:54:42.855Z,2530
2017-03-27T08:55:53.425Z,2445
2017-03-27T08:57:04.185Z,2285
2017-03-27T08:58:14.698Z,2215
2017-03-27T08:59:25.561Z,2440
2017-03-27T09:00:36.113Z,2790
2017-03-27T09:01:46.743Z,2950
2017-03-27T09:02:57.413Z,2800
2017-03-27T09:04:07.947Z,2520
2017-03-27T09:05:18.875Z,2310
2017-03-27T09:06:29.440Z,2180
2017-03-27T09:07:39.641Z,2125
2017-03-27T09:08:51.141Z,2170
2017-03-27T09:10:01.490Z,2310
2017-03-27T09:11:12.380Z,2495
2017-03-27T09:12:23.260Z,2670
2017-03-27T09:13:33.173Z,2925
2017-03-27T09:14:43.380Z,3205
2017-03-27T09:15:53.949Z,3530
2017-03-27T09:17:04.852Z,3745
2017-03-27T09:18:15.384Z,3710
2017-03-27T09:19:25.288Z,3545
2017-03-27T09:20:35.924Z,3495
2017-03-27T09:21:46.493Z,3525
2017-03-27T09:22:57.043Z,3445
2017-03-27T09:24:07.581Z,3265
2017-03-27T09:25:18.108Z,3080
2017-03-27T09:26:28.707Z,3040
2017-03-27T09:27:39.342Z,3125
2017-03-27T09:28:50.532Z,3245
2017-03-27T09:30:00.404Z,3320
2017-03-27T09:31:11.182Z,3225
2017-03-27T09:32:21.872Z,3065
2017-03-27T09:33:32.508Z,2920
2017-03-27T09:34:43.474Z,2745
2017-03-27T09:35:53.716Z,2695
2017-03-27T09:37:04.269Z,2825
2017-03-27T09:38:14.795Z,3175
2017-03-27T09:39:25.076Z,3545
2017-03-27T09:40:35.843Z,3805
2017-03-27T09:41:46.474Z,3785
2017-03-27T09:42:57.030Z,3640
2017-03-27T09:44:07.539Z,3375
2017-03-27T09:45:18.222Z,3250
2017-03-27T09:46:28.996Z,3240
2017-03-27T09:47:39.682Z,3330
2017-03-27T09:48:49.900Z,3455
2017-03-27T09:50:00.429Z,3615
2017-03-27T09:51:11.007Z,3720
2017-03-27T09:52:21.834Z,3690
2017-03-27T09:53:32.061Z,3665
2017-03-27T09:54:42.640Z,3585
2017-03-27T09:55:53.304Z,3500
2017-03-27T09:57:03.526Z,3585
2017-03-27T09:58:13.982Z,3535
2017-03-27T09:59:24.468Z,3500
2017-03-27T10:00:35.072Z,3390
2017-03-27T10:01:45.639Z,3300
2017-03-27T10:02:56.215Z,3320
2017-03-27T10:04:07.032Z,3420
2017-03-27T10:05:17.585Z,3660
2017-03-27T10:06:29.109Z,4045
2017-03-27T10:07:39.320Z,4365
2017-03-27T10:08:50.035Z,4395
2017-03-27T10:10:00.704Z,4265
2017-03-27T10:11:11.230Z,4170
2017-03-27T10:12:21.129Z,4270
2017-03-27T10:13:31.364Z,4780
2017-03-27T10:14:42.904Z,5225
2017-03-27T10:15:54.703Z,5295
2017-03-27T10:17:05.277Z,4990
2017-03-27T10:18:15.950Z,4555
2017-03-27T10:19:26.214Z,4145
2017-03-27T10:20:36.802Z,4065
2017-03-27T10:21:47.333Z,4080
2017-03-27T10:22:57.938Z,4125
2017-03-27T10:24:08.291Z,4090
2017-03-27T10:25:18.912Z,4005
2017-03-27T10:26:29.030Z,3865
2017-03-27T10:27:39.564Z,3860
2017-03-27T10:28:49.854Z,4075
2017-03-27T10:30:00.157Z,4140
2017-03-27T10:31:10.357Z,4010
2017-03-27T10:32:20.909Z,3940
2017-03-27T10:33:31.059Z,4125
2017-03-27T10:34:41.723Z,4505
2017-03-27T10:35:52.293Z,4840
2017-03-27T10:37:02.812Z,4845
2017-03-27T10:38:13.427Z,4620
2017-03-27T10:39:24.134Z,4340
2017-03-27T10:40:34.488Z,4175
2017-03-27T10:41:44.425Z,4110
2017-03-27T10:42:54.968Z,4105
2017-03-27T10:44:05.486Z,4095
2017-03-27T10:45:15.959Z,4105
2017-03-27T10:46:26.163Z,4050
2017-03-27T10:47:36.820Z,3980
2017-03-27T10:48:47.126Z,3900
2017-03-27T10:49:57.435Z,3940
2017-03-27T10:51:08.415Z,4070
2017-03-27T10:52:18.933Z,4155
2017-03-27T10:53:29.489Z,4080
2017-03-27T10:54:39.734Z,4030
2017-03-27T10:55:50.249Z,4020
2017-03-27T10:57:00.813Z,4285
2017-03-27T10:58:11.979Z,4615
2017-03-27T10:59:21.891Z,4630
2017-03-27T11:00:32.127Z,4470
2017-03-27T11:01:42.665Z,4305
2017-03-27T11:02:53.521Z,4390
2017-03-27T11:04:03.745Z,4640
2017-03-27T11:05:14.309Z,4715
2017-03-27T11:06:25.012Z,4425
2017-03-27T11:07:35.388Z,3795
2017-03-27T11:08:46.270Z,3435
2017-03-27T11:09:56.826Z,3550
2017-03-27T11:11:06.848Z,3825
2017-03-27T11:12:17.403Z,4165
2017-03-27T11:13:59.769Z,4700
2017-03-27T11:15:10.474Z,4760
2017-03-27T11:16:20.701Z,4540
2017-03-27T11:17:30.927Z,4230
2017-03-27T11:18:41.525Z,3855
2017-03-27T11:19:51.645Z,3575
2017-03-27T11:21:01.845Z,3440
2017-03-27T11:22:12.071Z,3555
2017-03-27T11:23:22.675Z,3955
2017-03-27T11:24:33.210Z,4160
2017-03-27T11:25:43.734Z,4015
2017-03-27T11:26:53.934Z,3570
2017-03-27T11:28:04.516Z,3315
2017-03-27T11:29:15.139Z,3360
2017-03-27T11:30:25.406Z,3625
2017-03-27T11:31:35.873Z,4040
2017-03-27T11:32:46.121Z,4360
2017-03-27T11:33:56.341Z,4370
2017-03-27T11:35:06.601Z,4035
2017-03-27T11:36:16.877Z,3695
2017-03-27T11:37:27.711Z,3725
2017-03-27T11:38:37.998Z,4150
2017-03-27T11:39:47.257Z,4540
2017-03-27T11:40:57.886Z,4705
2017-03-27T11:42:08.117Z,4570
2017-03-27T11:43:19.869Z,4425
2017-03-27T11:44:30.484Z,4685
2017-03-27T11:45:41.022Z,4890
2017-03-27T11:46:51.584Z,4745
2017-03-27T11:48:02.194Z,4270
2017-03-27T11:49:12.971Z,3705
2017-03-27T11:50:23.697Z,3400
2017-03-27T11:51:34.309Z,3455
2017-03-27T11:52:44.956Z,3795
2017-03-27T11:53:55.555Z,4170
2017-03-27T11:55:06.352Z,4320
2017-03-27T11:56:16.907Z,4180
2017-03-27T11:57:27.453Z,3850
2017-03-27T11:58:38.115Z,3475
2017-03-27T11:59:48.394Z,3525
2017-03-27T12:00:59.232Z,3745
2017-03-27T12:02:09.645Z,3915
2017-03-27T12:03:20.244Z,3965
2017-03-27T12:04:30.797Z,3870
2017-03-27T12:05:40.763Z,3730
2017-03-27T12:06:51.324Z,3580
2017-03-27T12:08:01.260Z,3610
2017-03-27T12:09:11.783Z,3725
2017-03-27T12:10:22.382Z,3830
2017-03-27T12:11:32.606Z,3895
2017-03-27T12:12:43.467Z,4000
2017-03-27T12:13:54.022Z,4120
2017-03-27T12:15:04.567Z,4250
2017-03-27T12:16:15.505Z,4380
2017-03-27T12:17:26.110Z,4580
2017-03-27T12:18:36.924Z,4715
2017-03-27T12:19:47.161Z,4625
2017-03-27T12:20:57.828Z,4250
2017-03-27T12:22:08.148Z,3820
2017-03-27T12:23:18.366Z,3560
2017-03-27T12:24:28.842Z,3505
2017-03-27T12:25:39.374Z,3530
2017-03-27T12:26:49.979Z,3680
2017-03-27T12:28:00.574Z,3675
2017-03-27T12:29:11.398Z,3495
2017-03-27T12:30:22.945Z,3270
2017-03-27T12:31:32.865Z,3310
2017-03-27T12:32:43.091Z,3540
2017-03-27T12:33:53.809Z,3715
2017-03-27T12:35:04.438Z,3850
2017-03-27T12:36:14.905Z,4050
2017-03-27T12:37:25.098Z,4160
2017-03-27T12:38:35.293Z,4010
2017-03-27T12:39:45.291Z,3840
2017-03-27T12:40:55.573Z,3780
2017-03-27T12:42:05.787Z,3990
2017-03-27T12:43:16.385Z,4115
2017-03-27T12:44:27.006Z,4010
2017-03-27T12:45:37.753Z,3725
2017-03-27T12:46:48.331Z,3485
2017-03-27T12:47:59.207Z,3315
2017-03-27T12:49:09.611Z,3275
2017-03-27T12:50:20.247Z,3230
2017-03-27T12:51:30.795Z,3120
2017-03-27T12:52:42.350Z,3110
2017-03-27T12:53:53.199Z,3270
2017-03-27T12:55:03.474Z,3560
2017-03-27T12:56:13.994Z,3775
2017-03-27T12:57:24.619Z,3825
2017-03-27T12:58:34.835Z,3720
2017-03-27T12:59:45.338Z,3560
2017-03-27T13:00:55.944Z,3405
2017-03-27T13:02:06.473Z,3355
2017-03-27T13:03:48.918Z,3625
2017-03-27T13:04:59.760Z,3725
2017-03-27T13:06:10.013Z,3425
2017-03-27T13:07:20.580Z,3060
2017-03-27T13:08:30.898Z,2870
2017-03-27T13:09:41.145Z,2870
2017-03-27T13:10:52.277Z,2895
2017-03-27T13:12:02.837Z,3075
2017-03-27T13:13:13.041Z,3515
2017-03-27T13:14:23.670Z,3875
2017-03-27T13:15:34.242Z,4025
2017-03-27T13:16:45.114Z,3860
2017-03-27T13:17:55.362Z,3680
2017-03-27T13:19:05.931Z,3485
2017-03-27T13:20:15.853Z,3445
2017-03-27T13:21:27.364Z,3530
2017-03-27T13:22:38.206Z,3690
2017-03-27T13:23:48.436Z,3740
2017-03-27T13:24:59.971Z,3680
2017-03-27T13:26:10.498Z,3595
2017-03-27T13:27:21.162Z,3665
2017-03-27T13:28:31.723Z,3885
2017-03-27T13:29:43.265Z,3875
2017-03-27T13:30:54.023Z,3480
2017-03-27T13:32:04.674Z,3090
2017-03-27T13:33:14.887Z,2895
2017-03-27T13:34:25.765Z,2745
2017-03-27T13:35:36.322Z,2635
2017-03-27T13:36:46.890Z,2660
2017-03-27T13:37:58.374Z,2715
2017-03-27T13:39:09.050Z,2650
2017-03-27T13:40:19.823Z,2545
2017-03-27T13:41:31.390Z,2575
2017-03-27T13:42:41.975Z,2820
2017-03-27T13:43:52.502Z,3085
2017-03-27T13:45:02.377Z,3145
2017-03-27T13:46:14.121Z,2995
2017-03-27T13:47:24.674Z,2810
2017-03-27T13:48:34.920Z,2715
2017-03-27T13:49:45.441Z,2735
2017-03-27T13:50:55.650Z,2805
2017-03-27T13:52:06.240Z,2955
2017-03-27T13:53:16.473Z,3260
2017-03-27T13:54:27.046Z,3525
2017-03-27T13:55:37.641Z,3445
2017-03-27T13:56:47.853Z,2900
2017-03-27T13:57:58.692Z,2775
2017-03-27T13:59:09.242Z,2950
2017-03-27T14:00:19.492Z,3180
2017-03-27T14:01:30.120Z,3460
2017-03-27T14:02:40.677Z,3370
2017-03-27T14:03:51.077Z,2920
2017-03-27T14:05:01.290Z,2480
2017-03-27T14:06:11.526Z,2465
2017-03-27T14:07:22.090Z,2880
2017-03-27T14:08:32.632Z,3200
2017-03-27T14:09:42.993Z,3180
2017-03-27T14:10:53.831Z,3090
2017-03-27T14:12:04.400Z,3060
2017-03-27T14:13:14.966Z,2785
2017-03-27T14:14:25.536Z,2330
2017-03-27T14:15:37.042Z,2140
2017-03-27T14:16:47.582Z,2030
2017-03-27T14:17:57.827Z,2170
2017-03-27T14:19:08.452Z,2475
2017-03-27T14:20:19.007Z,2560
2017-03-27T14:21:29.288Z,2370
2017-03-27T14:22:39.321Z,2165
2017-03-27T14:23:48.996Z,2215
2017-03-27T14:24:58.927Z,2505
2017-03-27T14:26:09.053Z,2530
2017-03-27T14:27:19.267Z,2235
2017-03-27T14:28:29.265Z,1985
2017-03-27T14:29:39.246Z,2115
2017-03-27T14:30:48.892Z,2335
2017-03-27T14:31:58.585Z,2520
2017-03-27T14:33:08.349Z,2485
2017-03-27T14:34:18.519Z,2225
2017-03-27T14:35:29.103Z,1990
2017-03-27T14:36:39.699Z,1930
2017-03-27T14:37:50.299Z,2015
2017-03-27T14:39:01.132Z,2145
2017-03-27T14:40:12.350Z,2265
2017-03-27T14:41:22.316Z,2280
2017-03-27T14:42:32.845Z,2195
2017-03-27T14:43:43.115Z,2070
2017-03-27T14:44:53.958Z,1970
2017-03-27T14:46:04.289Z,1860
2017-03-27T14:47:14.792Z,1825
2017-03-27T14:48:26.129Z,1925
2017-03-27T14:49:36.781Z,2150
2017-03-27T14:50:47.195Z,2195
2017-03-27T14:51:57.149Z,2095
2017-03-27T14:53:07.077Z,2125
2017-03-27T14:54:16.848Z,2160
2017-03-27T14:55:26.469Z,1805
2017-03-27T14:56:36.658Z,1545
2017-03-27T14:57:46.911Z,1650
2017-03-27T14:58:56.588Z,1940
2017-03-27T15:00:06.645Z,2155
2017-03-27T15:01:16.254Z,2135
2017-03-27T15:02:26.443Z,1955
2017-03-27T15:03:36.382Z,1935
2017-03-27T15:04:46.084Z,1980
2017-03-27T15:05:56.045Z,1915
2017-03-27T15:07:06.065Z,1940
2017-03-27T15:08:16.358Z,2105
2017-03-27T15:09:26.348Z,2185
2017-03-27T15:10:36.326Z,2240
2017-03-27T15:11:46.330Z,2210
2017-03-27T15:12:56.283Z,1935
2017-03-27T15:14:06.483Z,1650
2017-03-27T15:15:16.409Z,1635
2017-03-27T15:16:26.060Z,1665
2017-03-27T15:17:36.009Z,1585
2017-03-27T15:18:45.650Z,1585
2017-03-27T15:19:55.527Z,1660
2017-03-27T15:21:05.742Z,1820
2017-03-27T15:22:15.429Z,1955
2017-03-27T15:23:25.370Z,1810
2017-03-27T15:24:34.702Z,1620
2017-03-27T15:25:44.990Z,1595
2017-03-27T15:26:54.606Z,1655
2017-03-27T15:28:04.639Z,1675
2017-03-27T15:29:14.656Z,1625
2017-03-27T15:30:24.654Z,1580
2017-03-27T15:31:34.575Z,1445
2017-03-27T15:32:44.267Z,1255
2017-03-27T15:33:54.249Z,1195
2017-03-27T15:35:03.878Z,1325
2017-03-27T15:36:13.526Z,1465
2017-03-27T15:37:25.052Z,1315
2017-03-27T15:38:35.161Z,1225
2017-03-27T15:39:45.401Z,1315
2017-03-27T15:40:55.417Z,1365
2017-03-27T15:42:05.406Z,1290
2017-03-27T15:43:15.661Z,1205
2017-03-27T15:44:25.809Z,1235
2017-03-27T15:45:35.773Z,1245
2017-03-27T15:46:45.511Z,1280
2017-03-27T15:47:55.148Z,1540
2017-03-27T15:49:05.418Z,1555
2017-03-27T15:50:15.360Z,1245
2017-03-27T15:51:25.313Z,1160
2017-03-27T15:52:38.683Z,1165
2017-03-27T15:53:48.310Z,1080
2017-03-27T15:54:58.644Z,1115
2017-03-27T15:56:08.315Z,1135
2017-03-27T15:57:18.372Z,1015
2017-03-27T15:58:28.006Z,975
2017-03-27T15:59:37.937Z,905
2017-03-27T16:00:47.847Z,835
2017-03-27T16:01:57.849Z,850
2017-03-27T16:03:07.816Z,870
2017-03-27T16:04:17.875Z,965
2017-03-27T16:05:27.844Z,910
2017-03-27T16:06:38.051Z,765
2017-03-27T16:07:48.056Z,790
2017-03-27T16:08:58.032Z,835
2017-03-27T16:10:07.970Z,780
2017-03-27T16:11:17.972Z,740
2017-03-27T16:12:27.949Z,505
2017-03-27T16:13:37.886Z,305